sensor_id;sensor_type;location;lat;lon;timestamp;P1;durP1;ratioP1;P2;durP2;ratioP2
22017;SDS011;11173;51.050;7.108;2023-05-16T00:11:16;1.52;;;1.42;;
22017;SDS011;11173;51.050;7.108;2023-05-16T00:21:16;3.72;;;2.55;;
22017;SDS011;11173;51.050;7.108;2023-05-16T00:41:17;3.20;;;2.20;;
22017;SDS011;11173;51.050;7.108;2023-05-16T00:51:18;3.00;;;2.72;;
22017;SDS011;11173;51.050;7.108;2023-05-16T01:01:19;3.67;;;3.38;;
22017;SDS011;11173;51.050;7.108;2023-05-16T01:32:25;1.85;;;1.75;;
22017;SDS011;11173;51.050;7.108;2023-05-16T01:52:45;1.58;;;1.45;;
22017;SDS011;11173;51.050;7.108;2023-05-16T02:02:57;1.20;;;1.20;;
22017;SDS011;11173;51.050;7.108;2023-05-16T02:12:57;1.10;;;1.10;;
22017;SDS011;11173;51.050;7.108;2023-05-16T02:22:58;1.98;;;1.10;;
22017;SDS011;11173;51.050;7.108;2023-05-16T02:32:58;1.17;;;1.08;;
22017;SDS011;11173;51.050;7.108;2023-05-16T02:42:58;2.00;;;1.90;;
22017;SDS011;11173;51.050;7.108;2023-05-16T02:52:59;2.67;;;2.33;;
22017;SDS011;11173;51.050;7.108;2023-05-16T03:03:01;3.75;;;2.70;;
22017;SDS011;11173;51.050;7.108;2023-05-16T03:13:01;3.50;;;2.50;;
22017;SDS011;11173;51.050;7.108;2023-05-16T03:23:02;4.55;;;1.90;;
22017;SDS011;11173;51.050;7.108;2023-05-16T03:33:02;4.88;;;2.33;;
22017;SDS011;11173;51.050;7.108;2023-05-16T03:43:03;3.13;;;1.67;;
22017;SDS011;11173;51.050;7.108;2023-05-16T03:53:03;4.50;;;2.28;;
22017;SDS011;11173;51.050;7.108;2023-05-16T04:03:04;7.20;;;3.87;;
22017;SDS011;11173;51.050;7.108;2023-05-16T04:13:04;7.00;;;4.07;;
22017;SDS011;11173;51.050;7.108;2023-05-16T04:23:05;5.00;;;3.22;;
22017;SDS011;11173;51.050;7.108;2023-05-16T04:33:05;7.25;;;3.28;;
22017;SDS011;11173;51.050;7.108;2023-05-16T04:43:06;5.50;;;3.20;;
22017;SDS011;11173;51.050;7.108;2023-05-16T04:53:07;2.45;;;2.25;;
22017;SDS011;11173;51.050;7.108;2023-05-16T05:03:07;5.68;;;3.53;;
22017;SDS011;11173;51.050;7.108;2023-05-16T05:13:09;5.78;;;3.33;;
22017;SDS011;11173;51.050;7.108;2023-05-16T05:23:10;6.38;;;4.03;;
22017;SDS011;11173;51.050;7.108;2023-05-16T05:33:12;5.70;;;3.58;;
22017;SDS011;11173;51.050;7.108;2023-05-16T05:43:15;7.07;;;3.80;;
22017;SDS011;11173;51.050;7.108;2023-05-16T05:53:16;15.75;;;6.38;;
22017;SDS011;11173;51.050;7.108;2023-05-16T06:03:17;12.18;;;4.18;;
22017;SDS011;11173;51.050;7.108;2023-05-16T06:13:17;4.20;;;2.92;;
22017;SDS011;11173;51.050;7.108;2023-05-16T06:23:18;5.53;;;2.40;;
22017;SDS011;11173;51.050;7.108;2023-05-16T06:33:18;7.53;;;2.28;;
22017;SDS011;11173;51.050;7.108;2023-05-16T06:43:19;7.75;;;2.67;;
22017;SDS011;11173;51.050;7.108;2023-05-16T06:53:19;2.50;;;1.48;;
22017;SDS011;11173;51.050;7.108;2023-05-16T07:03:20;4.40;;;1.50;;
22017;SDS011;11173;51.050;7.108;2023-05-16T07:13:20;2.33;;;1.08;;
22017;SDS011;11173;51.050;7.108;2023-05-16T07:23:20;7.30;;;1.83;;
22017;SDS011;11173;51.050;7.108;2023-05-16T07:33:21;8.18;;;1.90;;
22017;SDS011;11173;51.050;7.108;2023-05-16T07:43:21;1.92;;;1.08;;
22017;SDS011;11173;51.050;7.108;2023-05-16T08:03:22;1.55;;;1.05;;
22017;SDS011;11173;51.050;7.108;2023-05-16T08:13:22;4.65;;;1.00;;
22017;SDS011;11173;51.050;7.108;2023-05-16T08:23:23;3.30;;;0.80;;
22017;SDS011;11173;51.050;7.108;2023-05-16T08:43:26;1.35;;;0.60;;
22017;SDS011;11173;51.050;7.108;2023-05-16T08:53:30;2.15;;;0.60;;
22017;SDS011;11173;51.050;7.108;2023-05-16T09:03:35;1.48;;;0.40;;
22017;SDS011;11173;51.050;7.108;2023-05-16T09:13:37;1.48;;;0.50;;
22017;SDS011;11173;51.050;7.108;2023-05-16T09:23:38;2.90;;;1.00;;
22017;SDS011;11173;51.050;7.108;2023-05-16T09:33:41;2.60;;;0.60;;
22017;SDS011;11173;51.050;7.108;2023-05-16T09:43:43;2.45;;;0.60;;
22017;SDS011;11173;51.050;7.108;2023-05-16T09:53:44;1.83;;;0.70;;
22017;SDS011;11173;51.050;7.108;2023-05-16T10:03:44;1.67;;;0.60;;
22017;SDS011;11173;51.050;7.108;2023-05-16T10:13:44;0.82;;;0.50;;
22017;SDS011;11173;51.050;7.108;2023-05-16T10:23:52;1.48;;;0.60;;
22017;SDS011;11173;51.050;7.108;2023-05-16T10:33:56;1.60;;;0.80;;
22017;SDS011;11173;51.050;7.108;2023-05-16T10:43:56;2.97;;;0.93;;
22017;SDS011;11173;51.050;7.108;2023-05-16T10:54:03;3.70;;;0.65;;
22017;SDS011;11173;51.050;7.108;2023-05-16T11:04:11;2.95;;;0.60;;
22017;SDS011;11173;51.050;7.108;2023-05-16T11:24:28;1.58;;;0.65;;
22017;SDS011;11173;51.050;7.108;2023-05-16T11:34:30;1.55;;;0.50;;
22017;SDS011;11173;51.050;7.108;2023-05-16T11:44:34;4.15;;;0.93;;
22017;SDS011;11173;51.050;7.108;2023-05-16T11:54:35;3.28;;;0.90;;
22017;SDS011;11173;51.050;7.108;2023-05-16T12:04:35;4.20;;;0.77;;
22017;SDS011;11173;51.050;7.108;2023-05-16T12:14:37;1.90;;;1.00;;
22017;SDS011;11173;51.050;7.108;2023-05-16T12:24:39;2.75;;;1.00;;
22017;SDS011;11173;51.050;7.108;2023-05-16T12:34:39;1.88;;;0.60;;
22017;SDS011;11173;51.050;7.108;2023-05-16T12:44:50;0.88;;;0.65;;
22017;SDS011;11173;51.050;7.108;2023-05-16T12:54:55;1.25;;;0.60;;
22017;SDS011;11173;51.050;7.108;2023-05-16T13:04:55;1.75;;;0.63;;
22017;SDS011;11173;51.050;7.108;2023-05-16T13:14:56;1.58;;;0.57;;
22017;SDS011;11173;51.050;7.108;2023-05-16T13:24:56;1.02;;;0.80;;
22017;SDS011;11173;51.050;7.108;2023-05-16T13:34:57;0.43;;;0.30;;
22017;SDS011;11173;51.050;7.108;2023-05-16T13:44:57;2.08;;;0.30;;
22017;SDS011;11173;51.050;7.108;2023-05-16T14:14:58;1.30;;;0.40;;
22017;SDS011;11173;51.050;7.108;2023-05-16T14:24:58;0.45;;;0.20;;
22017;SDS011;11173;51.050;7.108;2023-05-16T14:34:59;0.55;;;0.30;;
22017;SDS011;11173;51.050;7.108;2023-05-16T14:44:59;0.93;;;0.38;;
22017;SDS011;11173;51.050;7.108;2023-05-16T14:55:00;1.45;;;0.52;;
22017;SDS011;11173;51.050;7.108;2023-05-16T15:05:00;1.20;;;0.40;;
22017;SDS011;11173;51.050;7.108;2023-05-16T15:15:01;1.70;;;0.50;;
22017;SDS011;11173;51.050;7.108;2023-05-16T15:25:01;2.75;;;0.80;;
22017;SDS011;11173;51.050;7.108;2023-05-16T15:35:03;2.10;;;0.80;;
22017;SDS011;11173;51.050;7.108;2023-05-16T15:45:04;1.60;;;0.77;;
22017;SDS011;11173;51.050;7.108;2023-05-16T15:55:05;1.13;;;0.90;;
22017;SDS011;11173;51.050;7.108;2023-05-16T16:05:06;1.23;;;1.00;;
22017;SDS011;11173;51.050;7.108;2023-05-16T16:15:08;0.90;;;0.70;;
22017;SDS011;11173;51.050;7.108;2023-05-16T16:25:09;2.90;;;1.00;;
22017;SDS011;11173;51.050;7.108;2023-05-16T16:35:09;1.27;;;1.00;;
22017;SDS011;11173;51.050;7.108;2023-05-16T16:45:10;1.38;;;0.90;;
22017;SDS011;11173;51.050;7.108;2023-05-16T16:55:11;2.35;;;1.10;;
22017;SDS011;11173;51.050;7.108;2023-05-16T17:05:12;1.25;;;0.98;;
22017;SDS011;11173;51.050;7.108;2023-05-16T17:15:12;1.70;;;0.90;;
22017;SDS011;11173;51.050;7.108;2023-05-16T17:45:14;1.98;;;1.27;;
22017;SDS011;11173;51.050;7.108;2023-05-16T17:55:15;1.52;;;1.10;;
22017;SDS011;11173;51.050;7.108;2023-05-16T18:15:15;5.90;;;1.13;;
22017;SDS011;11173;51.050;7.108;2023-05-16T18:25:17;1.15;;;0.80;;
22017;SDS011;11173;51.050;7.108;2023-05-16T18:35:18;0.90;;;0.77;;
22017;SDS011;11173;51.050;7.108;2023-05-16T18:45:18;1.13;;;1.00;;
22017;SDS011;11173;51.050;7.108;2023-05-16T18:55:18;1.20;;;0.98;;
22017;SDS011;11173;51.050;7.108;2023-05-16T19:05:19;3.28;;;1.45;;
22017;SDS011;11173;51.050;7.108;2023-05-16T19:15:19;1.30;;;1.10;;
22017;SDS011;11173;51.050;7.108;2023-05-16T19:45:21;1.63;;;1.08;;
22017;SDS011;11173;51.050;7.108;2023-05-16T19:55:21;1.83;;;1.00;;
22017;SDS011;11173;51.050;7.108;2023-05-16T20:15:22;1.80;;;0.90;;
22017;SDS011;11173;51.050;7.108;2023-05-16T20:25:22;1.05;;;0.88;;
22017;SDS011;11173;51.050;7.108;2023-05-16T20:35:23;0.90;;;0.63;;
22017;SDS011;11173;51.050;7.108;2023-05-16T20:45:23;1.40;;;0.70;;
22017;SDS011;11173;51.050;7.108;2023-05-16T20:55:26;2.45;;;1.00;;
22017;SDS011;11173;51.050;7.108;2023-05-16T21:05:26;1.65;;;0.80;;
22017;SDS011;11173;51.050;7.108;2023-05-16T21:15:27;2.83;;;1.08;;
22017;SDS011;11173;51.050;7.108;2023-05-16T21:25:27;2.15;;;0.98;;
22017;SDS011;11173;51.050;7.108;2023-05-16T21:35:28;1.98;;;0.82;;
22017;SDS011;11173;51.050;7.108;2023-05-16T21:45:28;1.20;;;0.85;;
22017;SDS011;11173;51.050;7.108;2023-05-16T21:55:29;2.03;;;0.70;;
22017;SDS011;11173;51.050;7.108;2023-05-16T22:05:29;2.53;;;1.05;;
22017;SDS011;11173;51.050;7.108;2023-05-16T22:15:29;3.03;;;1.13;;
22017;SDS011;11173;51.050;7.108;2023-05-16T22:25:30;1.25;;;0.80;;
22017;SDS011;11173;51.050;7.108;2023-05-16T22:35:30;2.47;;;1.02;;
22017;SDS011;11173;51.050;7.108;2023-05-16T22:45:30;0.88;;;0.73;;
22017;SDS011;11173;51.050;7.108;2023-05-16T22:55:31;0.82;;;0.60;;
22017;SDS011;11173;51.050;7.108;2023-05-16T23:05:31;1.42;;;0.90;;
22017;SDS011;11173;51.050;7.108;2023-05-16T23:15:31;1.38;;;1.05;;
22017;SDS011;11173;51.050;7.108;2023-05-16T23:25:32;0.93;;;0.80;;
22017;SDS011;11173;51.050;7.108;2023-05-16T23:35:32;1.48;;;1.10;;
22017;SDS011;11173;51.050;7.108;2023-05-16T23:45:33;0.70;;;0.70;;
22017;SDS011;11173;51.050;7.108;2023-05-16T23:55:34;1.30;;;0.90;;
